createdAt,value
2019-05-06T00:00:26.157Z,14.12
2019-05-06T00:02:54.828Z,14.21
2019-05-06T00:05:25.336Z,14.07
2019-05-06T00:07:54.715Z,14.05
2019-05-06T00:10:26.907Z,14.01
2019-05-06T00:12:56.553Z,14.08
2019-05-06T00:15:25.265Z,14.21
2019-05-06T00:17:54.087Z,14.23
2019-05-06T00:20:24.392Z,14.26
2019-05-06T00:22:55.010Z,14.06
2019-05-06T00:25:25.305Z,14.00
2019-05-06T00:28:13.239Z,14.07
2019-05-06T00:30:45.311Z,14.35
2019-05-06T00:33:13.968Z,14.22
2019-05-06T00:35:44.940Z,14.08
2019-05-06T00:38:13.898Z,14.23
2019-05-06T00:40:50.443Z,14.20
2019-05-06T00:43:24.269Z,14.29
2019-05-06T00:45:53.649Z,14.57
2019-05-06T00:48:24.412Z,14.98
2019-05-06T00:50:53.636Z,14.74
2019-05-06T00:53:24.147Z,14.60
2019-05-06T00:55:53.802Z,14.68
2019-05-06T00:58:23.861Z,14.75
2019-05-06T01:00:54.342Z,14.71
2019-05-06T01:03:23.919Z,14.43
2019-05-06T01:05:54.166Z,14.15
2019-05-06T01:08:24.000Z,13.98
2019-05-06T01:10:54.568Z,13.94
2019-05-06T01:13:35.104Z,14.06
2019-05-06T01:16:04.255Z,14.18
2019-05-06T01:18:34.078Z,14.12
2019-05-06T01:21:11.615Z,14.01
2019-05-06T01:23:43.927Z,14.00
2019-05-06T01:26:15.176Z,13.97
2019-05-06T01:28:45.262Z,14.03
2019-05-06T01:31:14.377Z,14.00
2019-05-06T01:33:45.028Z,13.93
2019-05-06T01:36:14.117Z,13.85
2019-05-06T01:38:53.645Z,13.80
2019-05-06T01:41:30.191Z,13.88
2019-05-06T01:43:58.837Z,13.95
2019-05-06T01:46:27.484Z,13.98
2019-05-06T01:48:56.106Z,14.09
2019-05-06T01:51:24.746Z,14.24
2019-05-06T01:53:54.360Z,14.26
2019-05-06T01:56:25.028Z,14.21
2019-05-06T01:58:55.310Z,14.34
2019-05-06T02:01:25.081Z,14.29
2019-05-06T02:03:54.090Z,14.32
2019-05-06T02:06:24.799Z,14.46
2019-05-06T02:08:54.842Z,14.56
2019-05-06T02:11:24.937Z,14.52
2019-05-06T02:13:53.923Z,15.03
2019-05-06T02:16:24.245Z,14.72
2019-05-06T02:18:54.041Z,14.79
2019-05-06T02:21:30.315Z,14.35
2019-05-06T02:24:04.254Z,14.19
2019-05-06T02:26:34.563Z,14.11
2019-05-06T02:29:05.692Z,13.73
2019-05-06T02:31:49.135Z,13.81
2019-05-06T02:34:25.133Z,13.54
2019-05-06T02:37:09.632Z,13.40
2019-05-06T02:39:38.290Z,13.65
2019-05-06T02:42:08.470Z,13.78
2019-05-06T02:44:37.131Z,13.65
2019-05-06T02:47:13.823Z,13.67
2019-05-06T02:49:46.260Z,13.63
2019-05-06T02:52:14.910Z,13.66
2019-05-06T02:54:43.735Z,13.70
2019-05-06T02:57:13.152Z,13.71
2019-05-06T02:59:44.096Z,13.92
2019-05-06T03:02:14.040Z,14.19
2019-05-06T03:04:43.764Z,13.97
2019-05-06T03:07:14.451Z,13.98
2019-05-06T03:09:44.571Z,13.68
2019-05-06T03:12:13.940Z,13.82
2019-05-06T03:14:43.661Z,13.83
2019-05-06T03:17:14.018Z,13.98
2019-05-06T03:19:46.217Z,13.93
2019-05-06T03:22:16.510Z,13.79
2019-05-06T03:24:48.267Z,14.18
2019-05-06T03:27:17.037Z,14.05
2019-05-06T03:29:45.690Z,14.11
2019-05-06T03:32:21.378Z,14.25
2019-05-06T03:35:00.738Z,14.73
2019-05-06T03:37:16.801Z,14.26
2019-05-06T03:39:45.427Z,14.15
2019-05-06T03:42:16.600Z,14.40
2019-05-06T03:44:45.946Z,14.31
2019-05-06T03:47:34.527Z,14.33
2019-05-06T03:50:04.648Z,14.35
2019-05-06T03:52:34.157Z,14.30
2019-05-06T03:55:04.173Z,14.36
2019-05-06T03:57:36.270Z,14.61
2019-05-06T04:00:05.158Z,14.35
2019-05-06T04:02:34.102Z,14.36
2019-05-06T04:05:03.888Z,14.32
2019-05-06T04:07:34.175Z,14.19
2019-05-06T04:10:03.861Z,14.32
2019-05-06T04:12:34.892Z,14.04
2019-05-06T04:15:04.440Z,14.07
2019-05-06T04:17:35.206Z,14.02
2019-05-06T04:20:23.807Z,14.31
2019-05-06T04:22:57.069Z,14.54
2019-05-06T04:25:43.488Z,14.49
2019-05-06T04:28:17.071Z,14.58
2019-05-06T04:30:46.418Z,14.60
2019-05-06T04:33:17.604Z,14.38
2019-05-06T04:35:46.605Z,14.48
2019-05-06T04:38:15.253Z,14.55
2019-05-06T04:40:44.218Z,14.53
2019-05-06T04:43:13.694Z,14.28
2019-05-06T04:45:43.276Z,14.67
2019-05-06T04:48:14.278Z,14.65
2019-05-06T04:50:44.362Z,14.68
2019-05-06T04:53:13.862Z,14.38
2019-05-06T04:55:45.265Z,14.55
2019-05-06T04:58:14.016Z,14.75
2019-05-06T05:00:44.415Z,14.73
2019-05-06T05:03:14.255Z,14.49
2019-05-06T05:05:44.843Z,14.63
2019-05-06T05:08:14.426Z,14.63
2019-05-06T05:10:55.215Z,14.60
2019-05-06T05:13:32.914Z,14.84
2019-05-06T05:16:13.646Z,15.20
2019-05-06T05:18:47.006Z,15.37
2019-05-06T05:21:15.643Z,15.78
2019-05-06T05:23:45.246Z,15.52
2019-05-06T05:26:14.211Z,15.56
2019-05-06T05:28:43.052Z,15.78
2019-05-06T05:31:12.321Z,15.97
2019-05-06T05:33:45.464Z,15.97
2019-05-06T05:36:14.121Z,16.00
2019-05-06T05:38:44.586Z,16.14
2019-05-06T05:41:13.330Z,15.96
2019-05-06T05:43:46.978Z,16.01
2019-05-06T05:46:16.578Z,15.91
2019-05-06T05:49:05.172Z,15.95
2019-05-06T05:51:33.928Z,16.06
2019-05-06T05:54:02.793Z,16.25
2019-05-06T05:56:33.597Z,15.57
2019-05-06T05:59:03.293Z,16.60
2019-05-06T06:01:36.313Z,17.53
2019-05-06T06:04:05.240Z,17.94
2019-05-06T06:06:34.043Z,17.65
2019-05-06T06:09:04.687Z,17.43
2019-05-06T06:11:42.091Z,16.98
2019-05-06T06:14:12.726Z,16.67
2019-05-06T06:16:49.110Z,16.22
2019-05-06T06:19:25.614Z,16.39
2019-05-06T06:22:00.212Z,15.96
2019-05-06T06:24:32.195Z,16.16
2019-05-06T06:27:03.093Z,16.10
2019-05-06T06:29:32.431Z,15.93
2019-05-06T06:32:13.570Z,16.19
2019-05-06T06:34:43.182Z,15.80
2019-05-06T06:37:25.583Z,15.99
2019-05-06T06:39:55.902Z,16.07
2019-05-06T06:42:24.549Z,15.96
2019-05-06T06:44:53.857Z,15.84
2019-05-06T06:47:24.280Z,15.78
2019-05-06T06:49:53.591Z,15.69
2019-05-06T06:52:23.265Z,15.62
2019-05-06T06:54:52.629Z,15.43
2019-05-06T06:57:31.297Z,15.32
2019-05-06T07:00:04.094Z,15.28
2019-05-06T07:02:35.765Z,15.09
2019-05-06T07:08:02.257Z,14.80
2019-05-06T07:10:43.323Z,14.30
2019-05-06T07:13:13.863Z,13.96
2019-05-06T07:15:43.409Z,13.63
2019-05-06T07:18:13.432Z,13.44
2019-05-06T07:20:58.568Z,13.32
2019-05-06T07:23:28.833Z,13.19
2019-05-06T07:25:57.552Z,13.14
2019-05-06T07:28:27.095Z,13.51
2019-05-06T07:30:56.309Z,13.31
2019-05-06T07:33:24.955Z,13.61
2019-05-06T07:35:53.759Z,13.71
2019-05-06T07:38:23.372Z,13.88
2019-05-06T07:40:53.868Z,13.95
2019-05-06T07:43:24.217Z,14.28
2019-05-06T07:45:54.491Z,14.41
2019-05-06T07:48:25.768Z,14.85
2019-05-06T07:50:54.860Z,15.13
2019-05-06T07:53:23.604Z,15.44
2019-05-06T07:55:54.992Z,15.61
2019-05-06T07:58:23.692Z,15.57
2019-05-06T08:00:52.563Z,15.58
2019-05-06T08:03:22.247Z,15.46
2019-05-06T08:05:55.828Z,15.19
2019-05-06T08:08:23.011Z,15.29
2019-05-06T08:10:52.700Z,15.93
2019-05-06T08:13:22.617Z,16.25
2019-05-06T08:15:53.130Z,15.62
2019-05-06T08:18:23.122Z,16.24
2019-05-06T08:20:52.246Z,16.62
2019-05-06T08:23:37.864Z,17.60
2019-05-06T08:26:13.049Z,17.86
2019-05-06T08:28:44.272Z,16.84
2019-05-06T08:31:12.852Z,16.29
2019-05-06T08:33:43.348Z,16.08
2019-05-06T08:39:02.889Z,16.00
2019-05-06T08:41:33.182Z,16.19
2019-05-06T08:44:04.673Z,15.62
2019-05-06T08:46:37.420Z,15.73
2019-05-06T08:49:06.150Z,16.63
2019-05-06T08:51:55.001Z,16.90
2019-05-06T08:54:26.723Z,17.73
2019-05-06T08:56:56.489Z,17.37
2019-05-06T08:59:25.339Z,17.91
2019-05-06T09:01:58.404Z,18.52
2019-05-06T09:04:27.450Z,18.52
2019-05-06T09:07:02.911Z,18.54
2019-05-06T09:09:32.538Z,18.64
2019-05-06T09:12:02.722Z,18.96
2019-05-06T09:14:32.722Z,19.12
2019-05-06T09:17:02.831Z,19.29
2019-05-06T09:19:33.409Z,19.51
2019-05-06T09:22:10.061Z,19.77
2019-05-06T09:24:42.663Z,19.73
2019-05-06T09:27:14.225Z,19.29
2019-05-06T09:29:52.158Z,19.14
2019-05-06T09:32:25.556Z,19.10
2019-05-06T09:34:56.062Z,20.17
2019-05-06T09:37:24.741Z,20.43
2019-05-06T09:39:53.735Z,20.04
2019-05-06T09:42:23.977Z,19.32
2019-05-06T09:44:54.131Z,19.78
2019-05-06T09:47:28.767Z,20.05
2019-05-06T09:49:57.550Z,19.69
2019-05-06T09:52:26.297Z,19.77
2019-05-06T09:55:05.639Z,20.90
2019-05-06T09:57:52.403Z,19.81
2019-05-06T10:00:23.483Z,20.84
2019-05-06T10:02:52.821Z,20.08
2019-05-06T10:05:21.627Z,20.06
2019-05-06T10:07:52.257Z,20.51
2019-05-06T10:10:22.345Z,19.83
2019-05-06T10:12:54.294Z,20.02
2019-05-06T10:15:23.605Z,20.23
2019-05-06T10:17:57.118Z,20.06
2019-05-06T10:20:25.949Z,20.80
2019-05-06T10:22:55.988Z,20.36
2019-05-06T10:25:25.444Z,20.35
2019-05-06T10:27:57.286Z,20.74
2019-05-06T10:30:26.042Z,21.45
2019-05-06T10:33:27.755Z,21.20
2019-05-06T10:35:59.308Z,21.03
2019-05-06T10:38:55.140Z,19.55
2019-05-06T10:41:26.838Z,19.21
2019-05-06T10:44:27.732Z,18.69
2019-05-06T10:46:56.620Z,18.40
2019-05-06T10:49:25.329Z,18.66
2019-05-06T10:52:07.978Z,19.12
2019-05-06T10:54:37.108Z,19.06
2019-05-06T10:57:12.408Z,18.91
2019-05-06T10:59:43.768Z,18.58
2019-05-06T11:02:17.415Z,18.89
2019-05-06T11:04:46.205Z,19.03
2019-05-06T11:07:28.241Z,18.59
2019-05-06T11:09:46.811Z,18.39
2019-05-06T11:12:15.746Z,17.75
2019-05-06T11:14:48.741Z,16.65
2019-05-06T11:17:14.792Z,16.65
2019-05-06T11:19:43.627Z,16.74
2019-05-06T11:22:13.787Z,16.77
2019-05-06T11:25:12.274Z,15.74
2019-05-06T11:27:39.572Z,15.69
2019-05-06T11:36:00.750Z,15.30
2019-05-06T11:41:05.039Z,14.48
2019-05-06T11:43:37.253Z,13.94
2019-05-06T11:46:12.270Z,13.89
2019-05-06T11:48:43.150Z,13.34
2019-05-06T11:51:25.816Z,12.93
2019-05-06T11:53:54.618Z,13.04
2019-05-06T11:56:23.382Z,12.78
2019-05-06T11:58:53.915Z,12.55
2019-05-06T12:04:06.793Z,12.40
2019-05-06T12:06:35.469Z,12.69
2019-05-06T12:09:15.719Z,13.18
2019-05-06T12:11:43.172Z,13.57
2019-05-06T12:14:12.500Z,14.03
2019-05-06T12:16:43.056Z,14.24
2019-05-06T12:19:14.631Z,13.95
2019-05-06T12:21:45.368Z,13.52
2019-05-06T12:24:14.017Z,13.62
2019-05-06T12:26:43.484Z,13.51
2019-05-06T12:29:12.797Z,13.46
2019-05-06T12:31:42.341Z,13.24
2019-05-06T12:34:12.510Z,13.26
2019-05-06T12:36:42.784Z,13.27
2019-05-06T12:39:18.618Z,13.24
2019-05-06T12:42:04.787Z,13.12
2019-05-06T12:44:35.170Z,12.95
2019-05-06T12:47:08.262Z,12.98
2019-05-06T12:49:36.910Z,12.98
2019-05-06T12:52:06.055Z,12.91
2019-05-06T12:54:34.824Z,13.03
2019-05-06T12:57:03.644Z,13.07
2019-05-06T12:59:32.283Z,13.23
2019-05-06T13:02:02.818Z,13.30
2019-05-06T13:04:49.746Z,13.51
2019-05-06T13:07:03.039Z,13.81
2019-05-06T13:09:33.129Z,14.07
2019-05-06T13:12:03.752Z,14.06
2019-05-06T13:14:33.250Z,14.01
2019-05-06T13:17:02.865Z,14.21
2019-05-06T13:19:32.368Z,14.35
2019-05-06T13:22:03.613Z,14.35
2019-05-06T13:24:32.699Z,14.38
2019-05-06T13:27:02.529Z,14.43
2019-05-06T13:29:35.562Z,14.55
2019-05-06T13:32:03.572Z,14.19
2019-05-06T13:41:22.160Z,14.46
2019-05-06T13:43:54.074Z,14.26
2019-05-06T13:46:24.626Z,13.38
2019-05-06T13:49:13.376Z,12.99
2019-05-06T13:51:52.329Z,12.54
2019-05-06T13:54:22.326Z,12.25
2019-05-06T13:56:52.235Z,12.22
2019-05-06T13:59:21.138Z,12.18
2019-05-06T14:01:54.676Z,12.04
2019-05-06T14:04:24.081Z,12.22
2019-05-06T14:09:43.710Z,12.37
2019-05-06T14:12:13.076Z,12.63
2019-05-06T14:17:57.198Z,13.13
2019-05-06T14:20:42.961Z,12.62
2019-05-06T14:23:17.059Z,12.33
2019-05-06T14:25:56.730Z,12.36
2019-05-06T14:28:32.704Z,12.66
2019-05-06T14:31:05.783Z,12.50
2019-05-06T14:33:34.382Z,12.71
2019-05-06T14:36:03.390Z,12.75
2019-05-06T14:38:32.347Z,12.81
2019-05-06T14:41:04.352Z,13.22
2019-05-06T14:43:33.370Z,13.36
2019-05-06T14:46:02.559Z,13.40
2019-05-06T14:48:33.186Z,13.58
2019-05-06T14:51:02.435Z,13.84
2019-05-06T14:53:33.162Z,13.95
2019-05-06T14:56:03.281Z,14.34
2019-05-06T14:58:32.199Z,14.12
2019-05-06T15:01:03.445Z,14.12
2019-05-06T15:03:37.107Z,13.95
2019-05-06T15:06:05.740Z,14.08
2019-05-06T15:08:34.477Z,13.62
2019-05-06T15:11:03.371Z,13.63
2019-05-06T15:13:32.338Z,13.69
2019-05-06T15:16:03.467Z,13.88
2019-05-06T15:18:32.817Z,13.60
2019-05-06T15:21:28.997Z,13.38
2019-05-06T15:23:31.935Z,13.11
2019-05-06T15:26:02.937Z,13.00
2019-05-06T15:28:33.610Z,13.00
2019-05-06T15:31:05.088Z,13.05
2019-05-06T15:33:35.512Z,13.12
2019-05-06T15:36:05.838Z,13.37
2019-05-06T15:38:34.590Z,13.53
2019-05-06T15:41:03.176Z,13.71
2019-05-06T15:43:33.352Z,13.62
2019-05-06T15:46:03.304Z,13.86
2019-05-06T15:48:33.121Z,13.75
2019-05-06T15:51:02.185Z,13.98
2019-05-06T15:53:32.851Z,13.95
2019-05-06T15:56:02.506Z,14.42
2019-05-06T15:58:32.440Z,14.74
2019-05-06T16:01:03.199Z,14.77
2019-05-06T16:03:33.406Z,14.82
2019-05-06T16:06:02.314Z,14.80
2019-05-06T16:08:32.114Z,14.86
2019-05-06T16:11:02.882Z,15.02
2019-05-06T16:13:31.353Z,14.84
2019-05-06T16:16:00.001Z,14.78
2019-05-06T16:18:28.712Z,15.06
2019-05-06T16:20:57.701Z,14.88
2019-05-06T16:23:27.879Z,14.85
2019-05-06T16:25:56.546Z,14.64
2019-05-06T16:28:25.243Z,14.48
2019-05-06T16:30:54.096Z,14.36
2019-05-06T16:33:22.736Z,14.17
2019-05-06T16:35:52.239Z,14.30
2019-05-06T16:38:23.013Z,14.21
2019-05-06T16:41:02.127Z,14.13
2019-05-06T16:43:22.326Z,14.03
2019-05-06T16:45:53.201Z,13.96
2019-05-06T16:48:22.604Z,13.81
2019-05-06T16:50:51.667Z,13.73
2019-05-06T16:53:20.231Z,13.95
2019-05-06T16:55:56.637Z,14.06
2019-05-06T16:58:32.158Z,13.94
2019-05-06T17:01:00.556Z,13.69
2019-05-06T17:03:32.929Z,13.46
2019-05-06T17:06:14.897Z,13.29
2019-05-06T17:08:43.632Z,13.33
2019-05-06T17:11:24.320Z,13.23
2019-05-06T17:13:44.650Z,13.19
2019-05-06T17:16:13.968Z,13.28
2019-05-06T17:18:42.680Z,13.37
2019-05-06T17:21:13.085Z,13.33
2019-05-06T17:23:42.441Z,12.98
2019-05-06T17:26:12.799Z,13.24
2019-05-06T17:28:43.456Z,12.96
2019-05-06T17:31:28.788Z,12.91
2019-05-06T17:34:04.844Z,12.88
2019-05-06T17:36:35.180Z,13.00
2019-05-06T17:39:06.841Z,12.95
2019-05-06T17:41:45.970Z,12.62
2019-05-06T17:44:07.146Z,12.70
2019-05-06T17:46:49.229Z,12.51
2019-05-06T17:49:23.628Z,12.41
2019-05-06T17:52:02.949Z,12.50
2019-05-06T17:54:32.632Z,12.61
2019-05-06T17:57:03.838Z,12.48
2019-05-06T17:59:33.154Z,12.45
2019-05-06T18:02:05.062Z,12.49
2019-05-06T18:04:34.451Z,12.26
2019-05-06T18:07:03.137Z,12.23
2019-05-06T18:09:33.109Z,12.30
2019-05-06T18:12:03.277Z,12.20
2019-05-06T18:14:33.254Z,12.02
2019-05-06T18:17:03.606Z,12.13
2019-05-06T18:19:33.635Z,12.29
2019-05-06T18:22:03.755Z,12.52
2019-05-06T18:24:33.320Z,12.55
2019-05-06T18:27:02.789Z,12.40
2019-05-06T18:29:33.462Z,12.36
2019-05-06T18:32:03.754Z,12.36
2019-05-06T18:34:33.070Z,12.05
2019-05-06T18:37:03.121Z,12.21
2019-05-06T18:39:34.168Z,11.91
2019-05-06T18:42:16.066Z,11.74
2019-05-06T18:44:35.012Z,11.49
2019-05-06T18:47:03.762Z,11.61
2019-05-06T18:49:33.735Z,11.78
2019-05-06T18:52:02.785Z,11.80
2019-05-06T18:54:33.838Z,11.60
2019-05-06T18:57:04.929Z,11.36
2019-05-06T18:59:36.568Z,11.52
2019-05-06T19:02:03.772Z,11.49
2019-05-06T19:04:34.074Z,11.55
2019-05-06T19:07:10.708Z,11.57
2019-05-06T19:09:34.840Z,11.53
2019-05-06T19:12:03.958Z,11.40
2019-05-06T19:14:33.339Z,11.44
2019-05-06T19:17:02.767Z,11.52
2019-05-06T19:19:34.683Z,11.26
2019-05-06T19:22:02.939Z,11.38
2019-05-06T19:24:33.667Z,11.48
2019-05-06T19:27:02.386Z,11.34
2019-05-06T19:29:33.104Z,11.44
2019-05-06T19:32:02.974Z,11.44
2019-05-06T19:34:34.557Z,11.50
2019-05-06T19:37:03.477Z,11.51
2019-05-06T19:39:33.021Z,11.66
2019-05-06T19:42:02.930Z,11.73
2019-05-06T19:44:32.685Z,11.68
2019-05-06T19:47:02.494Z,11.69
2019-05-06T19:49:32.767Z,11.92
2019-05-06T19:52:03.122Z,11.76
2019-05-06T19:54:33.173Z,11.92
2019-05-06T19:57:02.564Z,11.81
2019-05-06T19:59:33.148Z,11.63
2019-05-06T20:02:02.023Z,12.00
2019-05-06T20:04:33.102Z,11.65
2019-05-06T20:07:15.316Z,11.30
2019-05-06T20:10:03.250Z,11.19
2019-05-06T20:12:39.879Z,10.70
2019-05-06T20:15:33.726Z,10.71
2019-05-06T20:18:12.336Z,10.51
2019-05-06T20:20:42.307Z,10.69
2019-05-06T20:23:12.586Z,10.52
2019-05-06T20:25:42.801Z,10.68
2019-05-06T20:28:13.146Z,10.70
2019-05-06T20:30:42.351Z,10.67
2019-05-06T20:33:12.456Z,10.63
2019-05-06T20:35:43.221Z,10.66
2019-05-06T20:38:12.434Z,10.69
2019-05-06T20:40:43.059Z,10.57
2019-05-06T20:43:19.297Z,10.51
2019-05-06T20:45:47.560Z,10.42
2019-05-06T20:48:16.171Z,10.57
2019-05-06T20:50:44.804Z,10.60
2019-05-06T20:53:18.616Z,10.82
2019-05-06T20:55:47.261Z,10.57
2019-05-06T20:58:15.900Z,11.12
2019-05-06T21:00:44.747Z,10.96
2019-05-06T21:03:13.386Z,10.90
2019-05-06T21:05:43.478Z,10.62
2019-05-06T21:08:13.087Z,10.42
2019-05-06T21:10:43.029Z,10.56
2019-05-06T21:13:13.270Z,10.48
2019-05-06T21:15:43.199Z,10.31
2019-05-06T21:18:12.379Z,10.17
2019-05-06T21:20:43.365Z,10.12
2019-05-06T21:23:11.563Z,10.06
2019-05-06T21:25:40.483Z,9.97
2019-05-06T21:28:09.124Z,10.09
2019-05-06T21:30:37.810Z,10.12
2019-05-06T21:33:06.466Z,10.12
2019-05-06T21:35:35.545Z,10.14
2019-05-06T21:38:06.013Z,10.35
2019-05-06T21:40:34.766Z,10.65
2019-05-06T21:43:04.858Z,10.43
2019-05-06T21:45:33.774Z,10.21
2019-05-06T21:48:02.915Z,10.25
2019-05-06T21:50:33.297Z,10.63
2019-05-06T21:53:02.772Z,10.60
2019-05-06T21:55:32.358Z,10.37
2019-05-06T21:58:02.158Z,10.39
2019-05-06T22:00:43.401Z,10.13
2019-05-06T22:03:13.423Z,10.34
2019-05-06T22:05:42.365Z,9.99
2019-05-06T22:08:12.873Z,10.00
2019-05-06T22:10:42.145Z,10.23
2019-05-06T22:13:16.166Z,10.31
2019-05-06T22:15:44.806Z,10.21
2019-05-06T22:18:13.564Z,10.32
2019-05-06T22:21:00.182Z,10.54
2019-05-06T22:23:53.926Z,9.89
2019-05-06T22:26:23.529Z,9.94
2019-05-06T22:28:52.620Z,10.21
2019-05-06T22:31:24.046Z,10.06
2019-05-06T22:33:52.076Z,10.10
2019-05-06T22:36:22.665Z,10.13
2019-05-06T22:38:52.976Z,10.10
2019-05-06T22:41:23.132Z,10.37
2019-05-06T22:44:11.690Z,10.27
2019-05-06T22:46:32.790Z,10.39
2019-05-06T22:49:02.635Z,10.59
2019-05-06T22:51:32.322Z,10.55
2019-05-06T22:54:02.752Z,10.54
2019-05-06T22:56:32.495Z,10.63
2019-05-06T22:59:03.216Z,10.47
2019-05-06T23:01:33.260Z,10.63
2019-05-06T23:04:02.177Z,10.70
2019-05-06T23:06:32.918Z,10.84
2019-05-06T23:09:02.546Z,10.80
2019-05-06T23:11:32.761Z,10.73
2019-05-06T23:14:07.096Z,10.79
2019-05-06T23:16:36.884Z,10.66
2019-05-06T23:19:05.596Z,10.59
2019-05-06T23:21:34.280Z,10.70
2019-05-06T23:24:04.379Z,10.49
2019-05-06T23:26:33.278Z,10.45
2019-05-06T23:29:02.528Z,10.57
2019-05-06T23:31:33.191Z,10.41
2019-05-06T23:34:02.690Z,10.35
2019-05-06T23:36:52.815Z,10.38
2019-05-06T23:39:59.424Z,10.22
2019-05-06T23:43:04.043Z,10.15
2019-05-06T23:46:08.730Z,10.14
2019-05-06T23:49:13.686Z,10.21
2019-05-06T23:52:18.606Z,10.08
2019-05-06T23:55:23.652Z,10.03
2019-05-06T23:57:52.579Z,10.05
